METAR Data
IDs: Format: Raw Decoded Include TAF

Data at: 0125 UTC 19 Oct 2021

KROG 190058Z AUTO 15006KT 10SM CLR 14/08 A3008 RMK AO2 SLP183 T01440078
KROG 182358Z 16005KT 10SM CLR 16/07 A3007 RMK AO2 SLP179 T01610067 10222 20161 55006
KROG 182258Z 17008KT 10SM CLR 19/07 A3007 RMK AO2 SLP176 T01940067
KROG 182158Z 18012KT 10SM CLR 22/06 A3007 RMK AO2 SLP177 T02170061
KROG 182058Z 16010KT 10SM CLR 22/07 A3009 RMK AO2 SLP182 T02220067 56027
KROG 181958Z 16009G15KT 10SM CLR 22/06 A3010 RMK AO2 SLP186 T02220056
KROG 181858Z 18010G14KT 10SM CLR 22/07 A3014 RMK AO2 SLP198 T02170067
KROG 181758Z 17008KT 10SM CLR 22/06 A3017 RMK AO2 SLP211 T02170061 10217 20083 58017
KROG 181658Z 15004KT 10SM CLR 20/06 A3020 RMK AO2 SLP219 T02000056
KROG 181558Z 19006KT 10SM CLR 18/07 A3022 RMK AO2 SLP226 T01830067
KROG 181458Z 14005KT 10SM CLR 15/08 A3023 RMK AO2 SLP231 T01500083 52012
KROG 181358Z 12003KT 10SM CLR 12/08 A3022 RMK AO2 SLP229 T01220078
KROG 181258Z 13003KT 10SM CLR 09/07 A3020 RMK AO2 SLP222 T00940067
KROG 181158Z 14003KT 10SM CLR 09/07 A3019 RMK AO2 SLP219 T00890067 10106 20078 53003
KROG 181058Z 00000KT 10SM CLR 08/07 A3019 RMK AO2 SLP217 T00830067
KROG 180958Z AUTO 00000KT 10SM CLR 08/07 A3018 RMK AO2 SLP212 T00830067
KROG 180858Z AUTO 00000KT 10SM CLR 08/07 A3018 RMK AO2 SLP213 T00830067 58004
KROG 180758Z AUTO 16003KT 10SM CLR 08/07 A3018 RMK AO2 SLP215 T00830072
KROG 180658Z AUTO 14003KT 10SM CLR 10/07 A3019 RMK AO2 SLP216 T01000072
KROG 180558Z AUTO 14005KT 10SM CLR 11/07 A3019 RMK AO2 SLP217 T01060072 10172 20100 402220050 58007
KROG 180458Z AUTO 15004KT 10SM CLR 11/07 A3020 RMK AO2 SLP220 T01110072
KROG 180358Z AUTO 14005KT 10SM CLR 11/07 A3021 RMK AO2 SLP225 T01110067
KROG 180258Z AUTO 15005KT 10SM CLR 13/06 A3021 RMK AO2 SLP228 T01280061 53002
KROG 180158Z AUTO 00000KT 10SM CLR 13/07 A3021 RMK AO2 SLP227 T01280072
KROG 180058Z AUTO 17003KT 10SM CLR 14/07 A3021 RMK AO2 SLP229 T01440072
KROG 172358Z 20004KT 10SM CLR 17/07 A3021 RMK AO2 SLP226 T01720067 10222 20172 56007
KROG 172258Z 25004KT 10SM CLR 20/06 A3021 RMK AO2 SLP227 T02000056
KROG 172158Z 25007KT 10SM CLR 22/05 A3022 RMK AO2 SLP229 T02170050
KROG 172058Z 26008KT 10SM CLR 22/04 A3023 RMK AO2 SLP232 T02170039 56020
KROG 171958Z 29007KT 10SM CLR 21/03 A3024 RMK AO2 SLP236 T02110033
KROG 171858Z 24010KT 210V270 10SM CLR 21/05 A3026 RMK AO2 SLP243 T02110050
KROG 171758Z 20007KT 10SM CLR 20/04 A3029 RMK AO2 SLP253 T02000044 10200 20061 58015
KROG 171658Z 20008KT 10SM CLR 19/05 A3032 RMK AO2 SLP264 T01940050
KROG 171558Z 23008KT 10SM CLR 17/04 A3033 RMK AO2 SLP268 T01720044
KROG 171458Z 17003KT 10SM CLR 14/08 A3034 RMK AO2 SLP271 T01390078 51006
KROG 171358Z 00000KT 10SM CLR 10/06 A3033 RMK AO2 SLP270 T01000061